Time;durP1;ratioP1;P1;durP2;ratioP2;P2;SDS_P1;SDS_P2;PMS_P1;PMS_P2;Temp;Humidity;BMP_temperature;BMP_pressure;BME280_temperature;BME280_humidity;BME280_pressure;Samples;Min_cycle;Max_cycle;Signal;HPM_P1;HPM_P2
2024/01/05 00:00:09;;;;;;;8.85;6.55;;;2.40;99.90;;;;;;5051604;28;20048;-74
2024/01/05 00:02:36;;;;;;;10.52;7.05;;;2.50;99.90;;;;;;5053082;28;20135;-74
2024/01/05 00:05:04;;;;;;;9.82;7.10;;;2.40;99.90;;;;;;5051220;28;20167;-74
2024/01/05 00:07:33;;;;;;;9.93;6.68;;;2.40;99.90;;;;;;5051633;28;20052;-72
2024/01/05 00:10:00;;;;;;;10.55;6.55;;;2.50;99.90;;;;;;5052858;28;20041;-73
2024/01/05 00:12:27;;;;;;;9.90;6.85;;;2.40;99.90;;;;;;5051840;28;20102;-74
2024/01/05 00:14:55;;;;;;;10.77;6.80;;;2.50;99.90;;;;;;5052184;28;20109;-74
2024/01/05 00:17:22;;;;;;;13.05;7.65;;;2.40;99.90;;;;;;5051323;28;20447;-74
2024/01/05 00:19:49;;;;;;;11.70;7.15;;;2.40;99.90;;;;;;5052575;28;20431;-74
2024/01/05 00:22:16;;;;;;;16.85;7.80;;;2.40;99.90;;;;;;5050663;28;20377;-73
2024/01/05 00:24:43;;;;;;;11.93;6.68;;;2.40;99.90;;;;;;5051732;28;20048;-73
2024/01/05 00:27:10;;;;;;;10.32;6.93;;;2.40;99.90;;;;;;5051857;28;20099;-74
2024/01/05 00:29:38;;;;;;;9.80;6.38;;;2.50;99.90;;;;;;5051377;28;20044;-74
2024/01/05 00:32:07;;;;;;;12.95;6.68;;;2.40;99.90;;;;;;5052595;28;20381;-73
2024/01/05 00:34:34;;;;;;;11.10;7.22;;;2.40;99.90;;;;;;5050356;28;20083;-74
2024/01/05 00:37:01;;;;;;;12.10;7.30;;;2.40;99.90;;;;;;5052081;28;20060;-74
2024/01/05 00:39:28;;;;;;;13.45;6.80;;;2.40;99.90;;;;;;5051704;28;20045;-73
2024/01/05 00:41:55;;;;;;;10.57;6.68;;;2.30;99.90;;;;;;5039706;28;20049;-73
2024/01/05 00:44:22;;;;;;;12.02;7.55;;;2.40;99.90;;;;;;5052536;28;20048;-74
2024/01/05 00:46:49;;;;;;;11.82;6.75;;;2.40;99.90;;;;;;5051033;28;20051;-74
2024/01/05 00:49:17;;;;;;;12.45;6.40;;;2.40;99.90;;;;;;5051144;28;20173;-74
2024/01/05 00:51:44;;;;;;;11.23;7.68;;;2.40;99.90;;;;;;5052280;28;20044;-73
2024/01/05 00:54:11;;;;;;;21.63;7.18;;;2.30;99.90;;;;;;5051478;28;20090;-73
2024/01/05 00:56:42;;;;;;;15.13;8.23;;;2.30;99.90;;;;;;5052100;28;20101;-74
2024/01/05 00:59:09;;;;;;;16.83;8.68;;;2.30;99.90;;;;;;5035699;28;20045;-74
2024/01/05 01:01:36;;;;;;;12.85;7.85;;;2.40;99.90;;;;;;5051085;28;20098;-74
2024/01/05 01:04:03;;;;;;;17.42;8.60;;;2.20;99.90;;;;;;5051823;28;20045;-73
2024/01/05 01:06:32;;;;;;;14.25;8.23;;;2.20;99.90;;;;;;5067433;28;20051;-74
2024/01/05 01:08:58;;;;;;;15.40;8.65;;;2.20;99.90;;;;;;5051242;28;20103;-74
2024/01/05 01:11:27;;;;;;;13.48;9.05;;;2.20;99.90;;;;;;5049838;28;20060;-73
2024/01/05 01:13:54;;;;;;;13.18;8.45;;;2.20;99.90;;;;;;5051004;28;20508;-74
2024/01/05 01:16:20;;;;;;;16.42;8.30;;;2.10;99.90;;;;;;5051809;28;20063;-74
2024/01/05 01:18:47;;;;;;;16.50;8.57;;;2.20;99.90;;;;;;5050498;28;20053;-74
2024/01/05 01:21:14;;;;;;;16.55;8.68;;;2.20;99.90;;;;;;5051972;28;20102;-74
2024/01/05 01:23:42;;;;;;;15.63;8.15;;;2.40;99.90;;;;;;5050072;28;20107;-74
2024/01/05 01:26:09;;;;;;;13.18;7.60;;;2.30;99.90;;;;;;5051671;28;20060;-73
2024/01/05 01:28:36;;;;;;;13.63;7.57;;;2.20;99.90;;;;;;5050095;28;20056;-74
2024/01/05 01:31:03;;;;;;;12.15;7.57;;;2.20;99.90;;;;;;5050146;28;20053;-74
2024/01/05 01:33:30;;;;;;;13.10;7.93;;;2.20;99.90;;;;;;5051553;28;20048;-73
2024/01/05 01:35:57;;;;;;;15.95;8.18;;;2.20;99.90;;;;;;5050208;28;20110;-73
2024/01/05 01:38:24;;;;;;;12.75;7.60;;;2.20;99.90;;;;;;5050731;28;20106;-73
2024/01/05 01:40:55;;;;;;;13.43;8.20;;;2.20;99.90;;;;;;5052765;28;20109;-73
2024/01/05 01:43:25;;;;;;;15.05;7.95;;;2.20;99.90;;;;;;5050763;28;20063;-72
2024/01/05 01:45:53;;;;;;;16.07;8.47;;;2.20;99.90;;;;;;5050486;28;20588;-73
2024/01/05 01:48:21;;;;;;;13.60;8.43;;;2.20;99.90;;;;;;5049703;28;20291;-73
2024/01/05 01:50:49;;;;;;;11.70;7.47;;;2.10;99.90;;;;;;5050741;28;20124;-73
2024/01/05 01:53:19;;;;;;;12.10;7.53;;;2.10;99.90;;;;;;5054302;28;20048;-74
2024/01/05 01:55:47;;;;;;;14.30;7.15;;;2.10;99.90;;;;;;5053536;28;20381;-73
2024/01/05 01:58:17;;;;;;;14.63;7.13;;;2.20;99.90;;;;;;5053944;28;20056;-72
2024/01/05 02:00:45;;;;;;;11.97;6.70;;;2.20;99.90;;;;;;5053797;28;20094;-73
2024/01/05 02:03:14;;;;;;;12.15;7.47;;;2.20;99.90;;;;;;5054918;28;20545;-73
2024/01/05 02:05:42;;;;;;;12.38;6.68;;;2.40;99.90;;;;;;5052830;28;20060;-73
2024/01/05 02:08:09;;;;;;;15.80;8.13;;;2.20;99.90;;;;;;5071102;28;20439;-73
2024/01/05 02:10:35;;;;;;;14.80;7.43;;;2.20;99.90;;;;;;5055118;28;20494;-72
2024/01/05 02:13:03;;;;;;;14.13;7.70;;;2.20;99.90;;;;;;5053434;28;20493;-73
2024/01/05 02:15:31;;;;;;;12.68;7.20;;;2.20;99.90;;;;;;5072927;28;20052;-73
2024/01/05 02:17:58;;;;;;;16.02;6.80;;;2.10;99.90;;;;;;5053625;28;20110;-73
2024/01/05 02:20:25;;;;;;;13.38;7.00;;;2.20;99.90;;;;;;5053432;28;20041;-73
2024/01/05 02:22:57;;;;;;;13.43;7.35;;;2.10;99.90;;;;;;5055308;28;20048;-71
2024/01/05 02:25:25;;;;;;;13.85;6.57;;;2.10;99.90;;;;;;5053453;28;20048;-72
2024/01/05 02:27:52;;;;;;;15.85;8.07;;;2.20;99.90;;;;;;5053404;28;20048;-71
2024/01/05 02:30:19;;;;;;;14.40;7.35;;;2.10;99.90;;;;;;5054650;28;20052;-72
2024/01/05 02:32:46;;;;;;;12.73;8.20;;;2.10;99.90;;;;;;5053588;28;20497;-72
2024/01/05 02:35:13;;;;;;;13.23;7.40;;;2.10;99.90;;;;;;5053705;28;20573;-71
2024/01/05 02:37:43;;;;;;;13.38;8.02;;;2.10;99.90;;;;;;5053208;28;20103;-72
2024/01/05 02:40:12;;;;;;;13.80;8.13;;;2.10;99.90;;;;;;5053313;28;20041;-72
2024/01/05 02:42:40;;;;;;;17.13;8.68;;;2.10;99.90;;;;;;5053714;28;20446;-72
2024/01/05 02:45:08;;;;;;;12.70;8.27;;;2.10;99.90;;;;;;5054857;28;20396;-71
2024/01/05 02:47:35;;;;;;;16.67;8.75;;;2.10;99.90;;;;;;5053639;28;20805;-72
2024/01/05 02:50:02;;;;;;;20.40;8.55;;;2.10;99.90;;;;;;5053283;28;20487;-72
2024/01/05 02:52:29;;;;;;;14.25;7.15;;;2.10;99.90;;;;;;5053001;28;20052;-72
2024/01/05 02:54:55;;;;;;;13.27;7.22;;;2.10;99.90;;;;;;5053111;28;20082;-72
2024/01/05 02:57:22;;;;;;;16.00;7.22;;;2.10;99.90;;;;;;5054794;28;20044;-72
2024/01/05 02:59:50;;;;;;;15.65;8.48;;;2.10;99.90;;;;;;5053358;28;20412;-71
2024/01/05 03:02:17;;;;;;;20.02;8.73;;;2.10;99.90;;;;;;5052887;28;20058;-72
2024/01/05 03:04:44;;;;;;;14.98;8.05;;;2.10;99.90;;;;;;5052050;28;20044;-72
2024/01/05 03:07:11;;;;;;;17.33;8.95;;;2.10;99.90;;;;;;5053709;28;20053;-71
2024/01/05 03:09:38;;;;;;;14.95;7.70;;;2.10;99.90;;;;;;5053820;28;20090;-71
2024/01/05 03:12:06;;;;;;;16.92;8.35;;;2.00;99.90;;;;;;5052864;28;20067;-72
2024/01/05 03:14:33;;;;;;;16.30;8.98;;;2.00;99.90;;;;;;5053758;28;20098;-71
2024/01/05 03:17:01;;;;;;;14.27;8.48;;;2.00;99.90;;;;;;5051563;28;20508;-72
2024/01/05 03:19:28;;;;;;;14.70;8.93;;;2.20;99.90;;;;;;5053334;28;20098;-71
2024/01/05 03:21:55;;;;;;;19.67;8.73;;;2.00;99.90;;;;;;5054377;28;20442;-73
2024/01/05 03:24:22;;;;;;;16.13;8.10;;;2.10;99.90;;;;;;5052486;28;20110;-71
2024/01/05 03:26:49;;;;;;;13.70;7.72;;;2.00;99.90;;;;;;5056119;28;20044;-73
2024/01/05 03:29:16;;;;;;;17.25;9.13;;;2.00;99.90;;;;;;5052486;28;20061;-73
2024/01/05 03:31:44;;;;;;;17.95;8.98;;;2.10;99.90;;;;;;5052124;28;20044;-73
2024/01/05 03:34:12;;;;;;;17.30;9.30;;;2.00;99.90;;;;;;5055264;28;20059;-72
2024/01/05 03:36:39;;;;;;;16.42;8.57;;;2.00;99.90;;;;;;5052134;28;20057;-72
2024/01/05 03:39:07;;;;;;;15.23;8.95;;;2.00;99.90;;;;;;5052475;28;20447;-72
2024/01/05 03:41:34;;;;;;;13.50;8.15;;;2.00;99.90;;;;;;5051786;28;20044;-72
2024/01/05 03:44:02;;;;;;;17.42;9.23;;;2.00;99.90;;;;;;5052075;28;20052;-73
2024/01/05 03:46:28;;;;;;;17.48;8.35;;;2.00;99.90;;;;;;5051515;28;20048;-72
2024/01/05 03:48:55;;;;;;;18.35;9.70;;;1.90;99.90;;;;;;5051756;28;20060;-73
2024/01/05 03:51:24;;;;;;;14.90;9.30;;;2.00;99.90;;;;;;5051759;28;20377;-73
2024/01/05 03:53:50;;;;;;;13.77;9.02;;;2.00;99.90;;;;;;5050856;28;20067;-73
2024/01/05 03:56:17;;;;;;;16.40;8.35;;;2.00;99.90;;;;;;5051801;28;20102;-72
2024/01/05 03:58:44;;;;;;;17.50;8.60;;;2.00;99.90;;;;;;5067630;28;20052;-72
2024/01/05 04:01:11;;;;;;;14.75;8.38;;;2.10;99.90;;;;;;5051351;28;20056;-73
2024/01/05 04:03:38;;;;;;;13.57;8.05;;;2.00;99.90;;;;;;5052253;28;20040;-72
2024/01/05 04:06:05;;;;;;;14.13;7.50;;;2.00;99.90;;;;;;5050266;28;20473;-73
2024/01/05 04:08:33;;;;;;;15.35;8.07;;;2.00;99.90;;;;;;5052104;28;20098;-73
2024/01/05 04:11:00;;;;;;;15.02;8.55;;;2.00;99.90;;;;;;5051619;28;20048;-72
2024/01/05 04:13:27;;;;;;;14.30;7.20;;;2.00;99.90;;;;;;5049907;28;20052;-72
2024/01/05 04:15:54;;;;;;;17.90;9.25;;;2.00;99.90;;;;;;5051970;28;20526;-72
2024/01/05 04:18:21;;;;;;;14.13;8.18;;;2.00;99.90;;;;;;5050903;28;20049;-73
2024/01/05 04:20:48;;;;;;;12.35;7.22;;;2.10;99.90;;;;;;5051382;28;20412;-72
2024/01/05 04:23:15;;;;;;;14.85;8.02;;;2.00;99.90;;;;;;5051062;28;20565;-72
2024/01/05 04:25:43;;;;;;;12.85;8.30;;;2.10;99.90;;;;;;5051521;28;20442;-73
2024/01/05 04:28:10;;;;;;;13.18;7.13;;;2.00;99.90;;;;;;5037254;28;20049;-72
2024/01/05 04:30:37;;;;;;;13.93;7.75;;;2.10;99.90;;;;;;5050582;28;20094;-72
2024/01/05 04:33:04;;;;;;;14.32;8.52;;;2.00;99.90;;;;;;5051726;28;20105;-72
2024/01/05 04:35:31;;;;;;;14.30;8.23;;;2.00;99.90;;;;;;5050161;28;20400;-73
2024/01/05 04:37:58;;;;;;;17.55;7.85;;;2.00;99.90;;;;;;5051573;28;20301;-73
2024/01/05 04:40:25;;;;;;;13.50;7.28;;;2.10;99.90;;;;;;5049587;28;20111;-72
2024/01/05 04:42:53;;;;;;;13.75;7.25;;;2.00;99.90;;;;;;5050880;28;20553;-72
2024/01/05 04:45:20;;;;;;;14.60;7.88;;;2.10;99.90;;;;;;5037640;28;20049;-72
2024/01/05 04:47:47;;;;;;;12.30;7.38;;;2.10;99.90;;;;;;5049979;28;20060;-72
2024/01/05 04:50:14;;;;;;;11.13;6.32;;;2.10;99.90;;;;;;5014004;28;1084700;-73
2024/01/05 04:52:41;;;;;;;9.63;6.28;;;2.10;99.90;;;;;;5050703;28;20037;-73
2024/01/05 04:55:09;;;;;;;11.55;6.75;;;2.10;99.90;;;;;;5051985;28;20045;-72
2024/01/05 04:57:36;;;;;;;13.98;7.50;;;2.10;99.90;;;;;;5052274;28;20049;-72
2024/01/05 05:00:06;;;;;;;14.07;7.18;;;2.10;99.90;;;;;;5051467;28;20084;-72
2024/01/05 05:02:33;;;;;;;11.80;6.72;;;2.10;99.90;;;;;;5050424;28;20075;-72
2024/01/05 05:05:00;;;;;;;12.30;7.00;;;2.10;99.90;;;;;;5052417;28;20052;-72
2024/01/05 05:07:26;;;;;;;10.15;6.07;;;2.10;99.90;;;;;;5051737;28;20090;-73
2024/01/05 05:09:53;;;;;;;12.85;7.10;;;2.20;99.90;;;;;;5052128;28;20055;-72
2024/01/05 05:12:20;;;;;;;11.15;6.65;;;2.10;99.90;;;;;;5051050;28;20044;-74
2024/01/05 05:14:47;;;;;;;12.85;7.93;;;2.10;99.90;;;;;;5050095;28;20506;-74
2024/01/05 05:17:15;;;;;;;12.57;6.97;;;2.70;99.90;;;;;;5045509;28;20091;-74
2024/01/05 05:19:42;;;;;;;11.25;6.63;;;2.50;99.90;;;;;;5053261;28;20049;-74
2024/01/05 05:22:09;;;;;;;10.35;6.22;;;2.40;99.90;;;;;;5050372;28;20045;-74
2024/01/05 05:24:36;;;;;;;12.00;6.72;;;2.30;99.90;;;;;;5051157;28;20106;-73
2024/01/05 05:27:04;;;;;;;13.63;6.95;;;2.20;99.90;;;;;;5052837;28;20128;-74
2024/01/05 05:29:30;;;;;;;11.00;6.45;;;2.30;99.90;;;;;;5054439;28;20052;-74
2024/01/05 05:31:58;;;;;;;10.82;6.05;;;2.40;99.90;;;;;;5056013;28;20407;-74
2024/01/05 05:34:26;;;;;;;11.73;6.68;;;2.30;99.90;;;;;;5056789;28;20055;-74
2024/01/05 05:36:53;;;;;;;13.43;7.07;;;2.30;99.90;;;;;;5056217;28;20472;-74
2024/01/05 05:39:20;;;;;;;10.93;5.93;;;2.60;99.90;;;;;;5056825;28;20557;-73
2024/01/05 05:41:47;;;;;;;10.35;6.15;;;2.30;99.90;;;;;;5057343;28;20048;-73
2024/01/05 05:44:14;;;;;;;10.75;6.10;;;2.30;99.90;;;;;;5060516;28;20052;-74
2024/01/05 05:46:41;;;;;;;11.52;6.57;;;2.30;99.90;;;;;;5054858;28;20109;-74
2024/01/05 05:49:08;;;;;;;11.52;6.35;;;2.30;99.90;;;;;;5054100;28;20049;-73
2024/01/05 05:51:36;;;;;;;14.50;6.85;;;2.30;99.90;;;;;;5055228;28;20037;-74
2024/01/05 05:54:03;;;;;;;11.13;6.78;;;2.40;99.90;;;;;;5053371;28;20488;-74
2024/01/05 05:56:30;;;;;;;10.57;6.28;;;2.40;99.90;;;;;;5056273;28;20052;-74
2024/01/05 05:58:57;;;;;;;11.68;7.03;;;2.30;99.90;;;;;;5053546;28;20053;-73
2024/01/05 06:01:24;;;;;;;11.25;6.10;;;2.40;99.90;;;;;;5055916;28;20093;-73
2024/01/05 06:03:51;;;;;;;14.85;7.22;;;2.40;99.90;;;;;;5054897;28;20080;-73
2024/01/05 06:06:20;;;;;;;11.32;6.47;;;2.40;99.90;;;;;;5055224;28;20098;-74
2024/01/05 06:08:49;;;;;;;11.80;6.90;;;2.40;99.90;;;;;;5054384;28;20051;-73
2024/01/05 06:11:17;;;;;;;11.98;7.05;;;2.40;99.90;;;;;;5053677;28;20082;-73
2024/01/05 06:13:43;;;;;;;11.30;6.53;;;2.40;99.90;;;;;;5052728;28;20084;-73
2024/01/05 06:16:10;;;;;;;11.32;6.85;;;2.50;99.90;;;;;;5052370;28;20049;-72
2024/01/05 06:18:38;;;;;;;11.70;6.53;;;2.40;99.90;;;;;;5054904;28;20553;-73
2024/01/05 06:21:05;;;;;;;13.40;8.27;;;2.60;99.90;;;;;;5055034;28;20131;-74
2024/01/05 06:23:33;;;;;;;10.50;7.00;;;2.40;99.90;;;;;;5054656;28;20044;-73
2024/01/05 06:26:01;;;;;;;10.73;6.68;;;2.50;99.90;;;;;;5060584;28;20052;-73
2024/01/05 06:28:28;;;;;;;10.95;7.32;;;2.40;99.90;;;;;;5064559;28;20051;-72
2024/01/05 06:30:55;;;;;;;14.40;7.10;;;2.50;99.90;;;;;;5057384;28;20048;-74
2024/01/05 06:33:22;;;;;;;15.27;7.93;;;2.40;99.90;;;;;;5054967;28;20076;-75
2024/01/05 06:35:49;;;;;;;10.30;6.45;;;2.40;99.90;;;;;;5057985;28;20072;-74
2024/01/05 06:38:16;;;;;;;10.95;7.40;;;2.60;99.90;;;;;;5052639;28;20535;-73
2024/01/05 06:40:43;;;;;;;14.55;7.75;;;2.50;99.90;;;;;;5055088;28;20041;-73
2024/01/05 06:43:11;;;;;;;13.60;7.43;;;2.50;99.90;;;;;;5052438;28;20496;-73
2024/01/05 06:45:38;;;;;;;11.35;7.22;;;2.50;99.90;;;;;;5053685;28;20101;-73
2024/01/05 06:48:06;;;;;;;12.55;8.43;;;2.50;99.90;;;;;;5050280;28;20077;-73
2024/01/05 06:50:33;;;;;;;10.00;6.13;;;2.50;99.90;;;;;;5054280;28;20049;-74
2024/01/05 06:53:02;;;;;;;12.65;7.15;;;2.50;99.90;;;;;;5050657;28;20082;-74
2024/01/05 06:55:29;;;;;;;11.13;7.03;;;2.50;99.90;;;;;;5052010;28;20139;-73
2024/01/05 06:57:56;;;;;;;13.93;7.05;;;2.50;99.90;;;;;;5055093;28;20564;-73
2024/01/05 07:00:24;;;;;;;12.07;8.05;;;2.50;99.90;;;;;;5052736;28;21250;-73
2024/01/05 07:02:51;;;;;;;11.85;7.32;;;2.50;99.90;;;;;;5054504;28;20053;-73
2024/01/05 07:05:18;;;;;;;12.68;7.35;;;2.60;99.90;;;;;;5054125;28;20048;-73
2024/01/05 07:07:45;;;;;;;12.23;8.05;;;2.60;99.90;;;;;;5051690;28;20045;-74
2024/01/05 07:10:13;;;;;;;11.90;6.82;;;2.60;99.90;;;;;;5049215;28;20439;-74
2024/01/05 07:12:40;;;;;;;10.82;7.35;;;2.60;99.90;;;;;;5044763;28;20040;-74
2024/01/05 07:15:08;;;;;;;10.63;6.65;;;2.60;99.90;;;;;;5054600;28;20447;-74
2024/01/05 07:17:36;;;;;;;15.88;8.07;;;2.60;99.90;;;;;;5049620;28;20052;-74
2024/01/05 07:20:03;;;;;;;11.90;6.25;;;2.60;99.90;;;;;;5054130;28;20496;-74
2024/01/05 07:22:30;;;;;;;10.73;6.60;;;2.60;99.90;;;;;;5043135;28;20128;-73
2024/01/05 07:24:57;;;;;;;10.65;6.90;;;2.70;99.90;;;;;;5052425;28;20084;-74
2024/01/05 07:27:24;;;;;;;11.02;6.07;;;2.60;99.90;;;;;;5048069;28;20045;-74
2024/01/05 07:29:51;;;;;;;9.60;6.85;;;2.70;99.90;;;;;;5040027;28;20060;-73
2024/01/05 07:32:18;;;;;;;12.13;7.28;;;2.60;99.90;;;;;;5063226;28;20040;-73
2024/01/05 07:34:50;;;;;;;12.60;7.38;;;2.60;99.90;;;;;;5051478;28;20045;-73
2024/01/05 07:37:17;;;;;;;10.27;6.65;;;2.70;99.90;;;;;;5051573;28;20131;-73
2024/01/05 07:39:44;;;;;;;10.82;7.47;;;2.70;99.90;;;;;;5053795;28;20496;-73
2024/01/05 07:42:11;;;;;;;13.60;7.50;;;2.70;99.90;;;;;;5052242;28;20041;-73
2024/01/05 07:44:37;;;;;;;12.00;7.10;;;2.70;99.90;;;;;;5050822;28;20040;-74
2024/01/05 07:47:04;;;;;;;13.30;7.78;;;2.80;99.90;;;;;;5051471;28;20048;-73
2024/01/05 07:49:31;;;;;;;15.93;8.23;;;2.70;99.90;;;;;;5050387;28;20090;-73
2024/01/05 07:51:59;;;;;;;15.40;8.50;;;2.80;99.90;;;;;;5050340;28;20044;-74
2024/01/05 07:54:26;;;;;;;16.55;8.73;;;2.90;99.90;;;;;;5052944;28;20052;-73
2024/01/05 07:56:53;;;;;;;13.05;8.35;;;2.90;99.90;;;;;;5051732;28;20048;-74
2024/01/05 07:59:20;;;;;;;13.27;8.32;;;2.80;99.90;;;;;;5052164;28;20056;-74
2024/01/05 08:01:51;;;;;;;13.65;8.45;;;2.90;99.90;;;;;;5051826;28;20073;-73
2024/01/05 08:04:18;;;;;;;13.05;8.57;;;2.90;99.90;;;;;;5049400;28;20079;-74
2024/01/05 08:06:48;;;;;;;16.13;8.90;;;2.80;99.90;;;;;;5051282;28;20052;-74
2024/01/05 08:09:16;;;;;;;14.88;8.93;;;2.90;99.90;;;;;;5053707;28;20048;-74
2024/01/05 08:11:42;;;;;;;14.68;8.27;;;2.90;99.90;;;;;;5051254;28;20052;-74
2024/01/05 08:14:09;;;;;;;13.52;8.48;;;2.90;99.90;;;;;;5053647;28;20047;-74
2024/01/05 08:16:36;;;;;;;15.75;9.05;;;2.90;99.90;;;;;;5050772;28;20086;-73
2024/01/05 08:19:02;;;;;;;16.83;8.77;;;2.90;99.90;;;;;;5053916;28;20109;-75
2024/01/05 08:21:29;;;;;;;17.45;9.38;;;2.90;99.90;;;;;;5055616;28;20078;-73
2024/01/05 08:23:57;;;;;;;19.42;9.35;;;3.00;99.90;;;;;;5057889;28;20060;-74
2024/01/05 08:26:25;;;;;;;14.23;9.23;;;3.00;99.90;;;;;;5054416;28;20074;-75
2024/01/05 08:28:53;;;;;;;17.10;9.85;;;3.00;99.90;;;;;;5053533;28;20101;-74
2024/01/05 08:31:20;;;;;;;17.55;9.73;;;3.00;99.90;;;;;;5052913;28;20048;-73
2024/01/05 08:33:47;;;;;;;18.67;10.90;;;3.00;99.90;;;;;;5052945;28;20442;-74
2024/01/05 08:36:14;;;;;;;15.63;10.85;;;3.00;99.90;;;;;;5051298;28;20056;-74
2024/01/05 08:38:41;;;;;;;19.27;11.90;;;3.00;99.90;;;;;;5051617;28;20048;-74
2024/01/05 08:41:08;;;;;;;18.10;9.88;;;3.00;99.90;;;;;;5051368;28;20053;-74
2024/01/05 08:43:36;;;;;;;19.40;11.30;;;3.00;99.90;;;;;;5052062;28;20044;-74
2024/01/05 08:46:03;;;;;;;20.17;10.45;;;3.10;99.90;;;;;;5051605;28;20430;-74
2024/01/05 08:48:30;;;;;;;18.67;10.30;;;3.10;99.90;;;;;;5049657;28;20053;-74
2024/01/05 08:50:57;;;;;;;16.80;10.30;;;3.10;99.90;;;;;;5050947;28;20052;-74
2024/01/05 08:53:23;;;;;;;18.67;10.00;;;3.20;99.90;;;;;;5051680;28;20059;-74
2024/01/05 08:55:50;;;;;;;14.45;10.05;;;3.10;99.90;;;;;;5051893;28;20060;-74
2024/01/05 08:58:19;;;;;;;17.67;9.98;;;3.10;99.90;;;;;;5052658;28;20049;-74
2024/01/05 09:00:48;;;;;;;16.55;9.52;;;3.20;99.90;;;;;;5041760;28;20106;-74
2024/01/05 09:03:15;;;;;;;19.10;10.80;;;3.20;99.90;;;;;;5056614;28;20044;-73
2024/01/05 09:05:42;;;;;;;17.33;10.95;;;3.30;99.90;;;;;;5056753;28;20056;-73
2024/01/05 09:08:09;;;;;;;20.38;11.25;;;3.20;99.90;;;;;;5073106;28;20044;-74
2024/01/05 09:10:36;;;;;;;18.08;10.77;;;3.20;99.90;;;;;;5054341;28;20124;-73
2024/01/05 09:13:03;;;;;;;15.18;10.18;;;3.20;99.90;;;;;;5056806;28;20083;-74
2024/01/05 09:15:30;;;;;;;15.30;9.10;;;3.30;99.90;;;;;;5053148;28;20511;-74
2024/01/05 09:17:58;;;;;;;22.88;10.40;;;3.30;99.90;;;;;;5055916;28;20450;-74
2024/01/05 09:20:25;;;;;;;14.63;9.48;;;3.30;99.90;;;;;;5054451;28;20101;-74
2024/01/05 09:22:52;;;;;;;16.90;9.93;;;3.30;99.90;;;;;;5055354;28;20056;-74
2024/01/05 09:25:19;;;;;;;17.25;10.10;;;3.30;99.90;;;;;;5055079;28;20549;-74
2024/01/05 09:27:46;;;;;;;15.15;9.65;;;3.30;99.90;;;;;;5023209;28;20889;-74
2024/01/05 09:30:13;;;;;;;15.43;9.27;;;3.30;99.90;;;;;;5042958;28;20049;-74
2024/01/05 09:32:40;;;;;;;14.02;8.68;;;3.30;99.90;;;;;;5054562;28;20098;-74
2024/01/05 09:35:10;;;;;;;13.57;9.05;;;3.40;99.90;;;;;;5056535;28;20106;-74
2024/01/05 09:37:37;;;;;;;15.23;8.95;;;3.40;99.90;;;;;;5054765;28;20051;-75
2024/01/05 09:40:04;;;;;;;13.40;8.63;;;3.40;99.90;;;;;;5054457;28;20374;-72
2024/01/05 09:42:31;;;;;;;16.52;9.13;;;3.40;99.90;;;;;;5053907;28;20048;-71
2024/01/05 09:44:59;;;;;;;13.85;7.85;;;3.40;99.90;;;;;;5053773;28;20044;-74
2024/01/05 09:47:26;;;;;;;14.68;8.88;;;3.40;99.90;;;;;;5054982;28;20059;-74
2024/01/05 09:49:53;;;;;;;13.57;9.07;;;3.40;99.90;;;;;;5054624;28;20064;-74
2024/01/05 09:52:21;;;;;;;12.68;8.50;;;3.70;99.90;;;;;;5054980;28;20045;-74
2024/01/05 09:54:50;;;;;;;15.43;9.25;;;3.50;99.90;;;;;;5053426;28;20061;-74
2024/01/05 09:57:17;;;;;;;14.30;8.27;;;3.50;99.90;;;;;;5053048;28;20056;-74
2024/01/05 09:59:46;;;;;;;14.18;8.00;;;3.50;99.90;;;;;;5054257;28;20113;-74
2024/01/05 10:02:18;;;;;;;16.35;8.98;;;3.60;99.90;;;;;;5053585;28;20091;-73
2024/01/05 10:04:44;;;;;;;12.50;8.15;;;3.80;99.90;;;;;;5052759;28;20048;-74
2024/01/05 10:07:11;;;;;;;12.38;8.15;;;3.60;99.90;;;;;;5052813;28;20079;-73
2024/01/05 10:09:50;;;;;;;13.10;8.88;;;3.70;99.90;;;;;;5053893;28;20097;-73
2024/01/05 10:12:18;;;;;;;12.73;8.18;;;3.70;99.90;;;;;;5054758;28;20121;-73
2024/01/05 10:14:47;;;;;;;11.25;7.40;;;3.70;99.90;;;;;;5055347;28;20088;-73
2024/01/05 10:17:15;;;;;;;11.70;8.90;;;3.70;99.90;;;;;;5059476;28;20099;-73
2024/01/05 10:19:42;;;;;;;13.27;8.88;;;3.80;99.90;;;;;;5058903;28;20063;-74
2024/01/05 10:22:11;;;;;;;13.88;8.48;;;3.80;99.90;;;;;;5054668;28;20044;-74
2024/01/05 10:24:40;;;;;;;13.00;8.18;;;3.90;99.90;;;;;;5055119;28;20514;-74
2024/01/05 10:27:08;;;;;;;13.05;9.02;;;3.90;99.90;;;;;;5072784;28;20060;-74
2024/01/05 10:29:37;;;;;;;14.63;9.18;;;4.00;99.90;;;;;;5053896;28;20044;-74
2024/01/05 10:32:12;;;;;;;14.35;8.70;;;3.90;99.90;;;;;;5053513;28;20052;-74
2024/01/05 10:34:40;;;;;;;15.98;9.45;;;4.00;99.90;;;;;;5053265;28;20476;-74
2024/01/05 10:37:08;;;;;;;15.82;9.98;;;4.00;99.90;;;;;;5052752;28;20057;-74
2024/01/05 10:39:35;;;;;;;14.38;9.68;;;4.20;99.90;;;;;;5053053;28;20044;-74
2024/01/05 10:42:23;;;;;;;15.23;8.40;;;4.10;99.90;;;;;;5054206;28;20492;-74
2024/01/05 10:44:53;;;;;;;14.15;9.45;;;4.10;99.90;;;;;;5053421;28;20056;-75
2024/01/05 10:47:21;;;;;;;14.85;8.38;;;4.10;99.90;;;;;;5053420;28;20044;-74
2024/01/05 10:49:50;;;;;;;12.77;8.60;;;4.10;99.90;;;;;;5054521;28;20554;-74
2024/01/05 10:52:17;;;;;;;14.35;8.75;;;4.20;99.90;;;;;;5052021;28;20044;-73
2024/01/05 10:54:46;;;;;;;13.52;9.10;;;4.20;99.90;;;;;;5055482;28;20404;-74
2024/01/05 10:57:15;;;;;;;14.18;8.73;;;4.20;99.90;;;;;;5054010;28;20057;-74
2024/01/05 10:59:45;;;;;;;15.63;9.65;;;4.30;99.90;;;;;;5053354;28;20053;-74
2024/01/05 11:02:20;;;;;;;12.90;8.85;;;4.30;99.90;;;;;;5053069;28;20076;-74
2024/01/05 11:04:50;;;;;;;11.80;8.25;;;4.40;99.90;;;;;;5053389;28;20443;-74
2024/01/05 11:07:18;;;;;;;12.82;8.60;;;4.40;99.90;;;;;;5066997;28;20127;-74
2024/01/05 11:09:57;;;;;;;14.77;9.23;;;4.50;99.90;;;;;;5054944;28;20045;-74
2024/01/05 11:12:42;;;;;;;14.60;9.20;;;4.50;99.90;;;;;;5054579;28;20484;-74
2024/01/05 11:15:25;;;;;;;13.43;8.85;;;4.60;99.90;;;;;;5048442;28;20094;-74
2024/01/05 11:18:16;;;;;;;12.85;8.88;;;4.60;99.90;;;;;;5052117;28;20052;-74
2024/01/05 11:21:02;;;;;;;12.32;9.23;;;4.70;99.90;;;;;;5051052;28;20109;-74
2024/01/05 11:23:30;;;;;;;12.45;7.65;;;4.70;99.90;;;;;;5051056;28;20049;-74
2024/01/05 11:25:57;;;;;;;12.65;8.27;;;4.70;99.90;;;;;;5052063;28;20538;-75
2024/01/05 11:28:35;;;;;;;14.32;8.52;;;4.70;99.90;;;;;;5051276;28;20129;-75
2024/01/05 11:31:03;;;;;;;13.88;7.88;;;4.70;99.90;;;;;;5050885;28;20053;-74
2024/01/05 11:33:44;;;;;;;13.20;8.40;;;4.70;99.90;;;;;;5051656;28;20044;-74
2024/01/05 11:36:12;;;;;;;;;;;4.60;99.90;;;;;;5052912;28;20084;-75
2024/01/05 11:38:44;;;;;;;12.00;8.60;;;4.60;99.90;;;;;;5054361;28;19926;-75
2024/01/05 11:41:18;;;;;;;11.48;7.88;;;4.60;99.90;;;;;;5052573;28;20488;-75
2024/01/05 11:43:45;;;;;;;13.00;8.48;;;4.60;99.90;;;;;;5051267;28;20081;-74
2024/01/05 11:46:13;;;;;;;12.68;8.27;;;5.60;99.90;;;;;;5053475;28;20083;-74
2024/01/05 11:48:48;;;;;;;11.88;7.97;;;4.60;99.90;;;;;;5051565;28;20056;-73
2024/01/05 11:51:15;;;;;;;12.60;8.52;;;4.60;99.90;;;;;;5051379;28;20496;-74
2024/01/05 11:53:44;;;;;;;12.68;8.48;;;4.50;99.90;;;;;;5050741;28;20044;-74
2024/01/05 11:56:14;;;;;;;14.55;8.93;;;4.50;99.90;;;;;;5052125;28;20515;-74
2024/01/05 11:58:43;;;;;;;14.98;8.77;;;4.50;99.90;;;;;;5047909;28;20404;-74
2024/01/05 12:01:11;;;;;;;13.27;8.43;;;4.60;99.90;;;;;;5052441;28;20052;-74
2024/01/05 12:03:40;;;;;;;16.27;9.63;;;4.60;99.90;;;;;;5050498;28;20052;-74
2024/01/05 12:06:09;;;;;;;13.65;9.05;;;4.60;99.90;;;;;;5066620;28;20060;-74
2024/01/05 12:08:36;;;;;;;14.20;9.38;;;4.70;99.90;;;;;;5051565;28;20052;-75
2024/01/05 12:11:05;;;;;;;14.50;9.15;;;4.70;99.90;;;;;;5040833;28;20095;-75
2024/01/05 12:13:39;;;;;;;16.42;10.15;;;4.70;99.90;;;;;;5059589;28;20051;-74
2024/01/05 12:16:07;;;;;;;13.52;9.02;;;4.80;99.90;;;;;;5059935;28;20052;-74
2024/01/05 12:18:45;;;;;;;14.48;9.90;;;4.80;99.90;;;;;;5061112;28;20488;-75
2024/01/05 12:21:14;;;;;;;15.50;9.38;;;4.80;99.90;;;;;;5050404;28;20050;-74
2024/01/05 12:23:51;;;;;;;16.20;9.45;;;4.90;99.90;;;;;;5050701;28;20045;-75
2024/01/05 12:26:19;;;;;;;16.13;8.90;;;4.90;99.90;;;;;;5051686;28;20103;-74
2024/01/05 12:28:48;;;;;;;17.35;9.35;;;4.90;99.90;;;;;;5054032;28;20052;-75
2024/01/05 12:31:15;;;;;;;13.48;8.63;;;5.00;99.90;;;;;;5051072;28;20048;-74
2024/01/05 12:33:45;;;;;;;14.30;8.38;;;5.00;99.90;;;;;;5051811;28;20090;-74
2024/01/05 12:36:24;;;;;;;14.63;9.38;;;5.10;99.90;;;;;;5052197;28;20056;-75
2024/01/05 12:38:51;;;;;;;15.35;9.25;;;5.00;99.90;;;;;;5051620;28;20407;-75
2024/01/05 12:41:20;;;;;;;14.27;9.38;;;5.00;99.90;;;;;;5050795;28;20454;-75
2024/01/05 12:43:49;;;;;;;15.20;9.00;;;5.00;99.90;;;;;;5051383;28;20040;-74
2024/01/05 12:46:17;;;;;;;11.70;8.23;;;4.90;99.90;;;;;;5051672;28;20060;-74
2024/01/05 12:48:45;;;;;;;12.90;8.98;;;4.90;99.90;;;;;;5050641;28;20080;-74